sensor_id;sensor_type;location;lat;lon;timestamp;P1;durP1;ratioP1;P2;durP2;ratioP2
13327;SDS011;6733;51.044;3.746;2023-07-20T00:02:02;10.93;;;5.37;;
13327;SDS011;6733;51.044;3.746;2023-07-20T00:04:31;9.80;;;5.53;;
13327;SDS011;6733;51.044;3.746;2023-07-20T00:06:57;8.83;;;6.37;;
13327;SDS011;6733;51.044;3.746;2023-07-20T00:09:26;7.43;;;5.37;;
13327;SDS011;6733;51.044;3.746;2023-07-20T00:11:53;10.20;;;5.90;;
13327;SDS011;6733;51.044;3.746;2023-07-20T00:14:19;11.97;;;6.03;;
13327;SDS011;6733;51.044;3.746;2023-07-20T00:16:45;10.63;;;6.13;;
13327;SDS011;6733;51.044;3.746;2023-07-20T00:19:12;10.27;;;5.70;;
13327;SDS011;6733;51.044;3.746;2023-07-20T00:21:38;9.80;;;6.17;;
13327;SDS011;6733;51.044;3.746;2023-07-20T00:24:08;8.57;;;5.50;;
13327;SDS011;6733;51.044;3.746;2023-07-20T00:26:34;10.27;;;6.10;;
13327;SDS011;6733;51.044;3.746;2023-07-20T00:29:00;8.77;;;5.60;;
13327;SDS011;6733;51.044;3.746;2023-07-20T00:31:26;10.90;;;5.77;;
13327;SDS011;6733;51.044;3.746;2023-07-20T00:33:54;12.33;;;7.50;;
13327;SDS011;6733;51.044;3.746;2023-07-20T00:36:20;7.57;;;6.40;;
13327;SDS011;6733;51.044;3.746;2023-07-20T00:38:47;11.13;;;6.90;;
13327;SDS011;6733;51.044;3.746;2023-07-20T00:41:13;10.93;;;7.10;;
13327;SDS011;6733;51.044;3.746;2023-07-20T00:43:39;9.33;;;6.17;;
13327;SDS011;6733;51.044;3.746;2023-07-20T00:46:05;9.53;;;6.30;;
13327;SDS011;6733;51.044;3.746;2023-07-20T00:48:33;9.97;;;6.77;;
13327;SDS011;6733;51.044;3.746;2023-07-20T00:50:59;10.87;;;7.10;;
13327;SDS011;6733;51.044;3.746;2023-07-20T00:53:27;11.40;;;6.63;;
13327;SDS011;6733;51.044;3.746;2023-07-20T00:55:53;11.43;;;7.13;;
13327;SDS011;6733;51.044;3.746;2023-07-20T00:58:20;10.07;;;6.93;;
13327;SDS011;6733;51.044;3.746;2023-07-20T01:00:47;12.17;;;7.37;;
13327;SDS011;6733;51.044;3.746;2023-07-20T01:03:13;9.80;;;7.47;;
13327;SDS011;6733;51.044;3.746;2023-07-20T01:05:52;13.57;;;8.20;;
13327;SDS011;6733;51.044;3.746;2023-07-20T01:08:26;12.33;;;7.63;;
13327;SDS011;6733;51.044;3.746;2023-07-20T01:11:09;12.97;;;8.47;;
13327;SDS011;6733;51.044;3.746;2023-07-20T01:13:41;10.20;;;7.87;;
13327;SDS011;6733;51.044;3.746;2023-07-20T01:16:09;12.77;;;7.83;;
13327;SDS011;6733;51.044;3.746;2023-07-20T01:18:35;9.13;;;7.23;;
13327;SDS011;6733;51.044;3.746;2023-07-20T01:21:06;13.70;;;8.07;;
13327;SDS011;6733;51.044;3.746;2023-07-20T01:29:55;8.80;;;5.03;;
13327;SDS011;6733;51.044;3.746;2023-07-20T01:32:33;8.60;;;7.17;;
13327;SDS011;6733;51.044;3.746;2023-07-20T01:35:00;11.17;;;4.77;;
13327;SDS011;6733;51.044;3.746;2023-07-20T01:37:30;6.80;;;4.33;;
13327;SDS011;6733;51.044;3.746;2023-07-20T01:39:58;5.20;;;3.60;;
13327;SDS011;6733;51.044;3.746;2023-07-20T01:42:25;4.70;;;3.77;;
13327;SDS011;6733;51.044;3.746;2023-07-20T01:44:54;10.57;;;7.00;;
13327;SDS011;6733;51.044;3.746;2023-07-20T01:47:21;5.63;;;3.70;;
13327;SDS011;6733;51.044;3.746;2023-07-20T01:49:47;6.13;;;3.70;;
13327;SDS011;6733;51.044;3.746;2023-07-20T01:52:13;5.67;;;3.80;;
13327;SDS011;6733;51.044;3.746;2023-07-20T01:54:40;6.83;;;3.60;;
13327;SDS011;6733;51.044;3.746;2023-07-20T01:57:06;4.97;;;3.60;;
13327;SDS011;6733;51.044;3.746;2023-07-20T01:59:33;7.00;;;3.50;;
13327;SDS011;6733;51.044;3.746;2023-07-20T02:01:59;5.43;;;3.40;;
13327;SDS011;6733;51.044;3.746;2023-07-20T02:04:28;6.20;;;3.50;;
13327;SDS011;6733;51.044;3.746;2023-07-20T02:06:54;4.30;;;3.17;;
13327;SDS011;6733;51.044;3.746;2023-07-20T02:09:20;5.13;;;3.63;;
13327;SDS011;6733;51.044;3.746;2023-07-20T02:11:46;11.13;;;5.60;;
13327;SDS011;6733;51.044;3.746;2023-07-20T02:14:12;8.23;;;3.40;;
13327;SDS011;6733;51.044;3.746;2023-07-20T02:16:38;3.73;;;3.40;;
13327;SDS011;6733;51.044;3.746;2023-07-20T02:19:05;4.23;;;3.40;;
13327;SDS011;6733;51.044;3.746;2023-07-20T02:21:32;4.00;;;3.13;;
13327;SDS011;6733;51.044;3.746;2023-07-20T02:23:59;6.10;;;4.23;;
13327;SDS011;6733;51.044;3.746;2023-07-20T02:26:25;6.27;;;3.77;;
13327;SDS011;6733;51.044;3.746;2023-07-20T02:28:52;9.17;;;5.37;;
13327;SDS011;6733;51.044;3.746;2023-07-20T02:31:18;5.50;;;3.53;;
13327;SDS011;6733;51.044;3.746;2023-07-20T02:33:44;4.33;;;3.23;;
13327;SDS011;6733;51.044;3.746;2023-07-20T02:36:35;5.13;;;3.90;;
13327;SDS011;6733;51.044;3.746;2023-07-20T02:39:29;9.40;;;5.90;;
13327;SDS011;6733;51.044;3.746;2023-07-20T02:42:20;6.03;;;3.00;;
13327;SDS011;6733;51.044;3.746;2023-07-20T02:45:13;4.00;;;3.43;;
13327;SDS011;6733;51.044;3.746;2023-07-20T02:48:04;8.47;;;6.50;;
13327;SDS011;6733;51.044;3.746;2023-07-20T02:50:58;8.23;;;5.43;;
13327;SDS011;6733;51.044;3.746;2023-07-20T02:53:49;7.40;;;5.93;;
13327;SDS011;6733;51.044;3.746;2023-07-20T02:56:40;8.30;;;3.63;;
13327;SDS011;6733;51.044;3.746;2023-07-20T02:59:06;5.23;;;4.47;;
13327;SDS011;6733;51.044;3.746;2023-07-20T03:01:33;4.67;;;3.10;;
13327;SDS011;6733;51.044;3.746;2023-07-20T03:03:59;7.77;;;3.40;;
13327;SDS011;6733;51.044;3.746;2023-07-20T03:06:26;6.80;;;5.00;;
13327;SDS011;6733;51.044;3.746;2023-07-20T03:08:52;5.53;;;4.50;;
13327;SDS011;6733;51.044;3.746;2023-07-20T03:11:19;5.53;;;3.80;;
13327;SDS011;6733;51.044;3.746;2023-07-20T03:13:46;8.20;;;6.80;;
13327;SDS011;6733;51.044;3.746;2023-07-20T03:16:18;6.67;;;5.60;;
13327;SDS011;6733;51.044;3.746;2023-07-20T03:18:45;7.57;;;5.70;;
13327;SDS011;6733;51.044;3.746;2023-07-20T03:21:11;6.63;;;5.77;;
13327;SDS011;6733;51.044;3.746;2023-07-20T03:23:38;8.60;;;6.00;;
13327;SDS011;6733;51.044;3.746;2023-07-20T03:26:05;9.67;;;6.77;;
13327;SDS011;6733;51.044;3.746;2023-07-20T03:28:34;8.37;;;6.53;;
13327;SDS011;6733;51.044;3.746;2023-07-20T03:31:01;4.87;;;4.33;;
13327;SDS011;6733;51.044;3.746;2023-07-20T03:33:30;8.63;;;6.77;;
13327;SDS011;6733;51.044;3.746;2023-07-20T03:35:57;10.40;;;7.03;;
13327;SDS011;6733;51.044;3.746;2023-07-20T03:38:24;8.03;;;6.67;;
13327;SDS011;6733;51.044;3.746;2023-07-20T03:40:58;6.97;;;6.27;;
13327;SDS011;6733;51.044;3.746;2023-07-20T03:43:27;5.23;;;4.73;;
13327;SDS011;6733;51.044;3.746;2023-07-20T03:45:54;7.47;;;5.83;;
13327;SDS011;6733;51.044;3.746;2023-07-20T03:48:22;3.83;;;3.20;;
13327;SDS011;6733;51.044;3.746;2023-07-20T03:50:51;7.43;;;5.73;;
13327;SDS011;6733;51.044;3.746;2023-07-20T03:53:18;6.70;;;4.83;;
13327;SDS011;6733;51.044;3.746;2023-07-20T03:55:49;4.80;;;4.40;;
13327;SDS011;6733;51.044;3.746;2023-07-20T03:58:16;4.17;;;3.27;;
13327;SDS011;6733;51.044;3.746;2023-07-20T04:00:47;7.27;;;5.77;;
13327;SDS011;6733;51.044;3.746;2023-07-20T04:03:14;4.03;;;3.60;;
13327;SDS011;6733;51.044;3.746;2023-07-20T04:05:41;8.27;;;6.23;;
13327;SDS011;6733;51.044;3.746;2023-07-20T04:08:08;6.33;;;4.53;;
13327;SDS011;6733;51.044;3.746;2023-07-20T04:10:36;6.47;;;5.67;;
13327;SDS011;6733;51.044;3.746;2023-07-20T04:13:21;7.67;;;6.40;;
13327;SDS011;6733;51.044;3.746;2023-07-20T04:15:47;4.73;;;4.30;;
13327;SDS011;6733;51.044;3.746;2023-07-20T04:18:13;8.57;;;7.13;;
13327;SDS011;6733;51.044;3.746;2023-07-20T04:20:39;7.30;;;6.30;;
13327;SDS011;6733;51.044;3.746;2023-07-20T04:23:06;7.80;;;6.60;;
13327;SDS011;6733;51.044;3.746;2023-07-20T04:25:32;9.80;;;6.43;;
13327;SDS011;6733;51.044;3.746;2023-07-20T04:28:05;7.83;;;5.73;;
13327;SDS011;6733;51.044;3.746;2023-07-20T04:30:34;7.03;;;6.33;;
13327;SDS011;6733;51.044;3.746;2023-07-20T04:33:02;5.60;;;5.10;;
13327;SDS011;6733;51.044;3.746;2023-07-20T04:38:18;9.30;;;7.07;;
13327;SDS011;6733;51.044;3.746;2023-07-20T04:40:45;7.73;;;6.93;;
13327;SDS011;6733;51.044;3.746;2023-07-20T04:43:12;4.80;;;3.57;;
13327;SDS011;6733;51.044;3.746;2023-07-20T04:45:39;7.00;;;6.30;;
13327;SDS011;6733;51.044;3.746;2023-07-20T04:48:12;7.07;;;6.40;;
13327;SDS011;6733;51.044;3.746;2023-07-20T04:50:41;7.87;;;3.67;;
13327;SDS011;6733;51.044;3.746;2023-07-20T04:53:09;6.87;;;6.27;;
13327;SDS011;6733;51.044;3.746;2023-07-20T04:55:38;4.13;;;3.70;;
13327;SDS011;6733;51.044;3.746;2023-07-20T04:58:05;4.20;;;3.73;;
13327;SDS011;6733;51.044;3.746;2023-07-20T05:00:32;7.33;;;5.77;;
13327;SDS011;6733;51.044;3.746;2023-07-20T05:02:59;4.07;;;3.10;;
13327;SDS011;6733;51.044;3.746;2023-07-20T05:05:25;5.30;;;4.80;;
13327;SDS011;6733;51.044;3.746;2023-07-20T05:07:51;3.40;;;3.10;;
13327;SDS011;6733;51.044;3.746;2023-07-20T05:10:17;6.43;;;5.83;;
13327;SDS011;6733;51.044;3.746;2023-07-20T05:12:44;7.00;;;5.53;;
13327;SDS011;6733;51.044;3.746;2023-07-20T05:15:10;5.20;;;4.70;;
13327;SDS011;6733;51.044;3.746;2023-07-20T05:17:36;6.53;;;4.60;;
13327;SDS011;6733;51.044;3.746;2023-07-20T05:20:02;5.80;;;5.20;;
13327;SDS011;6733;51.044;3.746;2023-07-20T05:22:30;5.70;;;4.83;;
13327;SDS011;6733;51.044;3.746;2023-07-20T05:24:56;7.93;;;4.90;;
13327;SDS011;6733;51.044;3.746;2023-07-20T05:27:22;5.47;;;4.70;;
13327;SDS011;6733;51.044;3.746;2023-07-20T05:29:48;4.87;;;4.47;;
13327;SDS011;6733;51.044;3.746;2023-07-20T05:32:14;4.83;;;3.00;;
13327;SDS011;6733;51.044;3.746;2023-07-20T05:34:40;6.27;;;5.13;;
13327;SDS011;6733;51.044;3.746;2023-07-20T05:37:07;5.93;;;4.80;;
13327;SDS011;6733;51.044;3.746;2023-07-20T05:39:33;5.60;;;4.50;;
13327;SDS011;6733;51.044;3.746;2023-07-20T05:41:59;6.97;;;4.63;;
13327;SDS011;6733;51.044;3.746;2023-07-20T05:44:25;8.00;;;3.63;;
13327;SDS011;6733;51.044;3.746;2023-07-20T05:46:51;5.67;;;4.57;;
13327;SDS011;6733;51.044;3.746;2023-07-20T05:49:17;5.13;;;4.60;;
13327;SDS011;6733;51.044;3.746;2023-07-20T05:51:44;7.33;;;4.80;;
13327;SDS011;6733;51.044;3.746;2023-07-20T05:54:10;6.33;;;4.57;;
13327;SDS011;6733;51.044;3.746;2023-07-20T05:56:36;5.00;;;4.50;;
13327;SDS011;6733;51.044;3.746;2023-07-20T05:59:03;6.67;;;4.70;;
13327;SDS011;6733;51.044;3.746;2023-07-20T06:01:29;6.10;;;4.37;;
13327;SDS011;6733;51.044;3.746;2023-07-20T06:03:55;4.87;;;4.03;;
13327;SDS011;6733;51.044;3.746;2023-07-20T06:06:21;5.13;;;4.10;;
13327;SDS011;6733;51.044;3.746;2023-07-20T06:08:47;6.03;;;3.77;;
13327;SDS011;6733;51.044;3.746;2023-07-20T06:11:13;4.73;;;3.83;;
13327;SDS011;6733;51.044;3.746;2023-07-20T06:13:40;4.27;;;3.87;;
13327;SDS011;6733;51.044;3.746;2023-07-20T06:16:06;5.93;;;3.80;;
13327;SDS011;6733;51.044;3.746;2023-07-20T06:18:32;5.83;;;3.73;;
13327;SDS011;6733;51.044;3.746;2023-07-20T06:20:58;5.77;;;3.53;;
13327;SDS011;6733;51.044;3.746;2023-07-20T06:23:24;5.00;;;3.90;;
13327;SDS011;6733;51.044;3.746;2023-07-20T06:25:50;5.20;;;3.43;;
13327;SDS011;6733;51.044;3.746;2023-07-20T06:28:17;4.93;;;3.63;;
13327;SDS011;6733;51.044;3.746;2023-07-20T06:30:43;5.30;;;3.60;;
13327;SDS011;6733;51.044;3.746;2023-07-20T06:33:09;4.77;;;3.73;;
13327;SDS011;6733;51.044;3.746;2023-07-20T06:35:36;6.33;;;3.60;;
13327;SDS011;6733;51.044;3.746;2023-07-20T06:38:02;4.67;;;2.50;;
13327;SDS011;6733;51.044;3.746;2023-07-20T06:40:30;3.73;;;1.80;;
13327;SDS011;6733;51.044;3.746;2023-07-20T06:42:56;3.10;;;1.70;;
13327;SDS011;6733;51.044;3.746;2023-07-20T06:45:23;3.03;;;1.50;;
13327;SDS011;6733;51.044;3.746;2023-07-20T06:47:49;2.43;;;1.30;;
13327;SDS011;6733;51.044;3.746;2023-07-20T06:50:15;2.63;;;1.40;;
13327;SDS011;6733;51.044;3.746;2023-07-20T06:52:41;2.63;;;1.40;;
13327;SDS011;6733;51.044;3.746;2023-07-20T06:55:07;2.10;;;1.30;;
13327;SDS011;6733;51.044;3.746;2023-07-20T06:57:34;3.10;;;1.40;;
13327;SDS011;6733;51.044;3.746;2023-07-20T07:00:00;2.97;;;1.40;;
13327;SDS011;6733;51.044;3.746;2023-07-20T07:02:26;1.83;;;1.30;;
13327;SDS011;6733;51.044;3.746;2023-07-20T07:04:53;2.30;;;1.50;;
13327;SDS011;6733;51.044;3.746;2023-07-20T07:07:19;2.10;;;1.90;;
13327;SDS011;6733;51.044;3.746;2023-07-20T07:09:45;4.90;;;2.30;;
13327;SDS011;6733;51.044;3.746;2023-07-20T07:12:11;2.83;;;1.90;;
13327;SDS011;6733;51.044;3.746;2023-07-20T07:14:38;2.23;;;1.57;;
13327;SDS011;6733;51.044;3.746;2023-07-20T07:17:04;1.57;;;1.40;;
13327;SDS011;6733;51.044;3.746;2023-07-20T07:19:30;3.07;;;1.60;;
13327;SDS011;6733;51.044;3.746;2023-07-20T07:21:56;1.87;;;1.70;;
13327;SDS011;6733;51.044;3.746;2023-07-20T07:24:22;4.13;;;2.13;;
13327;SDS011;6733;51.044;3.746;2023-07-20T07:26:49;4.67;;;2.60;;
13327;SDS011;6733;51.044;3.746;2023-07-20T07:29:15;3.97;;;2.33;;
13327;SDS011;6733;51.044;3.746;2023-07-20T07:31:41;3.00;;;2.20;;
13327;SDS011;6733;51.044;3.746;2023-07-20T07:34:07;2.00;;;1.90;;
13327;SDS011;6733;51.044;3.746;2023-07-20T07:36:33;2.50;;;1.80;;
13327;SDS011;6733;51.044;3.746;2023-07-20T07:39:00;5.70;;;2.03;;
13327;SDS011;6733;51.044;3.746;2023-07-20T07:41:26;3.37;;;1.90;;
13327;SDS011;6733;51.044;3.746;2023-07-20T07:43:52;4.40;;;1.90;;
13327;SDS011;6733;51.044;3.746;2023-07-20T07:46:18;3.73;;;1.80;;
13327;SDS011;6733;51.044;3.746;2023-07-20T07:48:44;1.93;;;1.63;;
13327;SDS011;6733;51.044;3.746;2023-07-20T07:51:11;4.73;;;1.87;;
13327;SDS011;6733;51.044;3.746;2023-07-20T07:53:39;3.63;;;1.80;;
13327;SDS011;6733;51.044;3.746;2023-07-20T07:56:06;1.90;;;1.80;;
13327;SDS011;6733;51.044;3.746;2023-07-20T07:58:33;3.45;;;1.85;;
13327;SDS011;6733;51.044;3.746;2023-07-20T08:01:00;1.55;;;1.45;;
13327;SDS011;6733;51.044;3.746;2023-07-20T08:03:26;3.03;;;1.65;;
13327;SDS011;6733;51.044;3.746;2023-07-20T08:05:55;2.58;;;2.08;;
13327;SDS011;6733;51.044;3.746;2023-07-20T08:08:22;2.08;;;1.70;;
13327;SDS011;6733;51.044;3.746;2023-07-20T08:10:48;3.92;;;1.98;;
13327;SDS011;6733;51.044;3.746;2023-07-20T08:13:14;5.00;;;1.90;;
13327;SDS011;6733;51.044;3.746;2023-07-20T08:15:45;3.60;;;1.60;;
13327;SDS011;6733;51.044;3.746;2023-07-20T08:18:14;3.15;;;1.77;;
13327;SDS011;6733;51.044;3.746;2023-07-20T08:20:43;2.33;;;1.88;;
13327;SDS011;6733;51.044;3.746;2023-07-20T08:23:10;4.43;;;1.80;;
13327;SDS011;6733;51.044;3.746;2023-07-20T08:25:36;2.17;;;1.75;;
13327;SDS011;6733;51.044;3.746;2023-07-20T08:28:05;2.20;;;2.00;;
13327;SDS011;6733;51.044;3.746;2023-07-20T08:30:41;2.07;;;1.90;;
13327;SDS011;6733;51.044;3.746;2023-07-20T08:33:09;11.88;;;2.78;;
13327;SDS011;6733;51.044;3.746;2023-07-20T08:35:35;1.98;;;1.70;;
13327;SDS011;6733;51.044;3.746;2023-07-20T08:38:02;2.70;;;1.40;;
13327;SDS011;6733;51.044;3.746;2023-07-20T08:40:33;2.73;;;1.60;;
13327;SDS011;6733;51.044;3.746;2023-07-20T08:43:10;2.28;;;1.60;;
13327;SDS011;6733;51.044;3.746;2023-07-20T08:45:38;17.90;;;2.95;;
13327;SDS011;6733;51.044;3.746;2023-07-20T08:48:06;11.68;;;2.90;;
13327;SDS011;6733;51.044;3.746;2023-07-20T08:50:33;7.63;;;2.67;;
13327;SDS011;6733;51.044;3.746;2023-07-20T08:53:00;12.18;;;2.45;;
13327;SDS011;6733;51.044;3.746;2023-07-20T08:55:28;5.38;;;2.10;;
13327;SDS011;6733;51.044;3.746;2023-07-20T08:57:55;3.47;;;1.55;;
13327;SDS011;6733;51.044;3.746;2023-07-20T09:00:23;1.40;;;1.30;;
13327;SDS011;6733;51.044;3.746;2023-07-20T09:02:51;5.22;;;1.70;;
13327;SDS011;6733;51.044;3.746;2023-07-20T09:05:18;4.60;;;2.05;;
13327;SDS011;6733;51.044;3.746;2023-07-20T09:07:45;1.95;;;1.40;;
13327;SDS011;6733;51.044;3.746;2023-07-20T09:10:12;2.83;;;1.40;;
13327;SDS011;6733;51.044;3.746;2023-07-20T09:12:39;1.77;;;1.58;;
13327;SDS011;6733;51.044;3.746;2023-07-20T09:15:07;2.53;;;1.27;;
13327;SDS011;6733;51.044;3.746;2023-07-20T09:17:35;1.55;;;1.33;;
13327;SDS011;6733;51.044;3.746;2023-07-20T09:20:02;1.63;;;1.40;;
13327;SDS011;6733;51.044;3.746;2023-07-20T09:22:37;1.42;;;1.33;;
13327;SDS011;6733;51.044;3.746;2023-07-20T09:25:07;3.60;;;1.60;;
13327;SDS011;6733;51.044;3.746;2023-07-20T09:27:41;1.35;;;1.25;;
13327;SDS011;6733;51.044;3.746;2023-07-20T09:30:09;1.30;;;1.20;;
13327;SDS011;6733;51.044;3.746;2023-07-20T09:32:39;2.42;;;1.40;;
13327;SDS011;6733;51.044;3.746;2023-07-20T09:35:13;1.60;;;1.50;;
13327;SDS011;6733;51.044;3.746;2023-07-20T09:37:41;1.42;;;1.30;;
13327;SDS011;6733;51.044;3.746;2023-07-20T09:40:23;2.65;;;1.50;;
13327;SDS011;6733;51.044;3.746;2023-07-20T09:42:51;1.52;;;1.27;;
13327;SDS011;6733;51.044;3.746;2023-07-20T09:45:19;1.60;;;1.30;;
13327;SDS011;6733;51.044;3.746;2023-07-20T09:47:45;1.70;;;1.20;;
13327;SDS011;6733;51.044;3.746;2023-07-20T09:50:12;2.17;;;1.58;;
13327;SDS011;6733;51.044;3.746;2023-07-20T09:52:38;2.40;;;1.40;;
13327;SDS011;6733;51.044;3.746;2023-07-20T09:55:06;1.80;;;1.40;;
13327;SDS011;6733;51.044;3.746;2023-07-20T09:57:34;1.55;;;1.30;;
13327;SDS011;6733;51.044;3.746;2023-07-20T10:00:05;3.75;;;1.67;;
13327;SDS011;6733;51.044;3.746;2023-07-20T10:02:43;2.08;;;1.30;;
13327;SDS011;6733;51.044;3.746;2023-07-20T10:05:14;3.20;;;1.60;;
13327;SDS011;6733;51.044;3.746;2023-07-20T10:07:45;1.48;;;1.38;;
13327;SDS011;6733;51.044;3.746;2023-07-20T10:10:14;1.40;;;1.30;;
13327;SDS011;6733;51.044;3.746;2023-07-20T10:12:43;2.70;;;1.60;;
13327;SDS011;6733;51.044;3.746;2023-07-20T10:15:18;1.52;;;1.42;;
13327;SDS011;6733;51.044;3.746;2023-07-20T10:18:12;1.90;;;1.33;;
13327;SDS011;6733;51.044;3.746;2023-07-20T10:20:43;1.65;;;1.48;;
13327;SDS011;6733;51.044;3.746;2023-07-20T10:23:11;20.48;;;6.10;;
13327;SDS011;6733;51.044;3.746;2023-07-20T10:25:38;18.58;;;6.30;;
13327;SDS011;6733;51.044;3.746;2023-07-20T10:28:07;2.75;;;1.85;;
13327;SDS011;6733;51.044;3.746;2023-07-20T10:30:36;2.05;;;1.60;;
13327;SDS011;6733;51.044;3.746;2023-07-20T10:33:03;1.67;;;1.38;;
13327;SDS011;6733;51.044;3.746;2023-07-20T10:35:30;1.23;;;1.13;;
13327;SDS011;6733;51.044;3.746;2023-07-20T10:38:15;1.75;;;1.58;;
13327;SDS011;6733;51.044;3.746;2023-07-20T10:40:41;9.50;;;4.50;;
13327;SDS011;6733;51.044;3.746;2023-07-20T10:43:08;20.77;;;5.28;;
13327;SDS011;6733;51.044;3.746;2023-07-20T10:48:25;2.33;;;1.70;;
13327;SDS011;6733;51.044;3.746;2023-07-20T10:53:36;10.50;;;3.22;;
13327;SDS011;6733;51.044;3.746;2023-07-20T10:56:11;1.60;;;1.42;;
13327;SDS011;6733;51.044;3.746;2023-07-20T10:58:39;1.60;;;1.30;;
13327;SDS011;6733;51.044;3.746;2023-07-20T11:01:07;1.63;;;1.40;;
13327;SDS011;6733;51.044;3.746;2023-07-20T11:03:34;1.73;;;1.30;;
13327;SDS011;6733;51.044;3.746;2023-07-20T11:11:38;1.60;;;1.50;;
13327;SDS011;6733;51.044;3.746;2023-07-20T11:14:07;1.92;;;1.50;;
13327;SDS011;6733;51.044;3.746;2023-07-20T11:16:41;2.63;;;1.50;;
13327;SDS011;6733;51.044;3.746;2023-07-20T11:19:22;2.40;;;1.42;;
13327;SDS011;6733;51.044;3.746;2023-07-20T11:21:56;1.90;;;1.42;;
13327;SDS011;6733;51.044;3.746;2023-07-20T11:24:24;2.90;;;1.60;;
13327;SDS011;6733;51.044;3.746;2023-07-20T11:26:53;2.40;;;1.42;;
13327;SDS011;6733;51.044;3.746;2023-07-20T11:29:20;3.45;;;1.52;;
13327;SDS011;6733;51.044;3.746;2023-07-20T11:31:49;2.15;;;1.30;;
13327;SDS011;6733;51.044;3.746;2023-07-20T11:34:19;7.82;;;3.28;;
13327;SDS011;6733;51.044;3.746;2023-07-20T11:36:47;2.55;;;1.50;;
13327;SDS011;6733;51.044;3.746;2023-07-20T11:39:15;2.00;;;1.27;;
13327;SDS011;6733;51.044;3.746;2023-07-20T11:41:47;2.17;;;1.45;;
13327;SDS011;6733;51.044;3.746;2023-07-20T11:44:18;1.67;;;1.38;;
13327;SDS011;6733;51.044;3.746;2023-07-20T11:46:46;2.13;;;1.60;;
13327;SDS011;6733;51.044;3.746;2023-07-20T11:49:12;1.70;;;1.60;;
13327;SDS011;6733;51.044;3.746;2023-07-20T11:51:39;3.72;;;1.88;;
13327;SDS011;6733;51.044;3.746;2023-07-20T11:54:06;2.22;;;1.67;;
13327;SDS011;6733;51.044;3.746;2023-07-20T11:56:34;2.20;;;2.00;;
13327;SDS011;6733;51.044;3.746;2023-07-20T11:59:00;2.85;;;2.05;;
13327;SDS011;6733;51.044;3.746;2023-07-20T12:01:30;3.30;;;1.75;;
13327;SDS011;6733;51.044;3.746;2023-07-20T12:04:03;2.30;;;2.00;;
13327;SDS011;6733;51.044;3.746;2023-07-20T12:06:30;2.53;;;1.88;;
13327;SDS011;6733;51.044;3.746;2023-07-20T12:08:57;2.60;;;2.05;;
13327;SDS011;6733;51.044;3.746;2023-07-20T12:11:57;6.97;;;3.03;;
13327;SDS011;6733;51.044;3.746;2023-07-20T12:14:17;3.58;;;1.98;;
13327;SDS011;6733;51.044;3.746;2023-07-20T12:16:43;2.40;;;1.83;;
13327;SDS011;6733;51.044;3.746;2023-07-20T12:19:10;7.93;;;2.78;;
13327;SDS011;6733;51.044;3.746;2023-07-20T12:21:39;2.40;;;2.10;;
13327;SDS011;6733;51.044;3.746;2023-07-20T12:24:07;10.05;;;2.83;;
13327;SDS011;6733;51.044;3.746;2023-07-20T12:26:35;3.47;;;2.47;;
13327;SDS011;6733;51.044;3.746;2023-07-20T12:29:02;3.97;;;1.85;;
13327;SDS011;6733;51.044;3.746;2023-07-20T12:31:30;6.57;;;2.53;;
13327;SDS011;6733;51.044;3.746;2023-07-20T12:33:59;5.22;;;2.47;;
13327;SDS011;6733;51.044;3.746;2023-07-20T12:36:25;6.13;;;2.72;;
13327;SDS011;6733;51.044;3.746;2023-07-20T12:38:52;3.15;;;1.90;;
13327;SDS011;6733;51.044;3.746;2023-07-20T12:41:18;6.40;;;2.38;;
13327;SDS011;6733;51.044;3.746;2023-07-20T12:43:45;3.00;;;1.98;;
13327;SDS011;6733;51.044;3.746;2023-07-20T12:46:12;7.00;;;2.53;;
13327;SDS011;6733;51.044;3.746;2023-07-20T12:48:39;2.80;;;2.00;;
13327;SDS011;6733;51.044;3.746;2023-07-20T12:51:07;5.43;;;2.33;;
13327;SDS011;6733;51.044;3.746;2023-07-20T12:53:35;3.42;;;2.10;;
13327;SDS011;6733;51.044;3.746;2023-07-20T12:56:01;2.35;;;1.80;;
13327;SDS011;6733;51.044;3.746;2023-07-20T12:58:28;7.65;;;2.30;;
13327;SDS011;6733;51.044;3.746;2023-07-20T13:00:54;4.65;;;1.73;;
13327;SDS011;6733;51.044;3.746;2023-07-20T13:03:21;3.75;;;2.08;;
13327;SDS011;6733;51.044;3.746;2023-07-20T13:05:48;3.00;;;1.80;;
13327;SDS011;6733;51.044;3.746;2023-07-20T13:08:14;1.77;;;1.50;;
13327;SDS011;6733;51.044;3.746;2023-07-20T13:10:43;4.63;;;1.40;;
13327;SDS011;6733;51.044;3.746;2023-07-20T13:13:09;2.42;;;1.55;;
13327;SDS011;6733;51.044;3.746;2023-07-20T13:15:43;4.25;;;2.00;;
13327;SDS011;6733;51.044;3.746;2023-07-20T13:18:11;1.48;;;1.30;;
13327;SDS011;6733;51.044;3.746;2023-07-20T13:20:37;4.50;;;1.70;;
13327;SDS011;6733;51.044;3.746;2023-07-20T13:23:04;3.30;;;1.73;;
13327;SDS011;6733;51.044;3.746;2023-07-20T13:25:31;3.03;;;1.90;;
13327;SDS011;6733;51.044;3.746;2023-07-20T13:27:57;2.90;;;2.08;;
13327;SDS011;6733;51.044;3.746;2023-07-20T13:30:23;3.35;;;1.83;;
13327;SDS011;6733;51.044;3.746;2023-07-20T13:32:49;3.38;;;1.65;;
13327;SDS011;6733;51.044;3.746;2023-07-20T13:35:16;4.30;;;1.83;;
13327;SDS011;6733;51.044;3.746;2023-07-20T13:37:42;2.30;;;1.30;;
13327;SDS011;6733;51.044;3.746;2023-07-20T13:40:08;2.75;;;1.92;;
13327;SDS011;6733;51.044;3.746;2023-07-20T13:42:39;3.90;;;2.08;;
13327;SDS011;6733;51.044;3.746;2023-07-20T13:45:06;2.55;;;1.70;;
13327;SDS011;6733;51.044;3.746;2023-07-20T13:47:32;1.92;;;1.60;;
13327;SDS011;6733;51.044;3.746;2023-07-20T13:49:59;3.67;;;1.77;;
13327;SDS011;6733;51.044;3.746;2023-07-20T13:52:25;1.75;;;1.30;;
13327;SDS011;6733;51.044;3.746;2023-07-20T13:54:51;1.90;;;1.45;;
13327;SDS011;6733;51.044;3.746;2023-07-20T13:57:17;1.50;;;1.40;;
13327;SDS011;6733;51.044;3.746;2023-07-20T13:59:43;1.70;;;1.30;;
13327;SDS011;6733;51.044;3.746;2023-07-20T14:02:10;2.40;;;1.40;;
13327;SDS011;6733;51.044;3.746;2023-07-20T14:04:36;1.65;;;1.52;;
13327;SDS011;6733;51.044;3.746;2023-07-20T14:07:03;5.30;;;2.30;;
13327;SDS011;6733;51.044;3.746;2023-07-20T14:09:29;2.30;;;2.10;;
13327;SDS011;6733;51.044;3.746;2023-07-20T14:11:55;3.10;;;2.90;;
13327;SDS011;6733;51.044;3.746;2023-07-20T14:14:21;3.77;;;3.40;;
13327;SDS011;6733;51.044;3.746;2023-07-20T14:16:48;7.77;;;4.20;;
13327;SDS011;6733;51.044;3.746;2023-07-20T14:19:14;5.23;;;4.73;;
13327;SDS011;6733;51.044;3.746;2023-07-20T14:21:40;5.80;;;5.30;;
13327;SDS011;6733;51.044;3.746;2023-07-20T14:24:06;6.23;;;5.60;;
13327;SDS011;6733;51.044;3.746;2023-07-20T14:26:32;6.30;;;5.70;;
13327;SDS011;6733;51.044;3.746;2023-07-20T14:28:58;5.77;;;5.33;;
13327;SDS011;6733;51.044;3.746;2023-07-20T14:31:25;4.80;;;4.13;;
13327;SDS011;6733;51.044;3.746;2023-07-20T14:33:51;7.37;;;6.33;;
13327;SDS011;6733;51.044;3.746;2023-07-20T14:36:18;7.17;;;5.50;;
13327;SDS011;6733;51.044;3.746;2023-07-20T14:38:44;6.03;;;5.47;;
13327;SDS011;6733;51.044;3.746;2023-07-20T14:41:10;6.10;;;5.50;;
13327;SDS011;6733;51.044;3.746;2023-07-20T14:43:37;6.00;;;5.40;;
13327;SDS011;6733;51.044;3.746;2023-07-20T14:46:04;4.83;;;4.43;;
13327;SDS011;6733;51.044;3.746;2023-07-20T14:48:30;6.27;;;5.27;;
13327;SDS011;6733;51.044;3.746;2023-07-20T14:50:56;5.73;;;5.20;;
13327;SDS011;6733;51.044;3.746;2023-07-20T14:53:22;5.33;;;4.80;;
13327;SDS011;6733;51.044;3.746;2023-07-20T14:55:48;16.23;;;7.53;;
13327;SDS011;6733;51.044;3.746;2023-07-20T14:58:15;16.43;;;6.20;;
13327;SDS011;6733;51.044;3.746;2023-07-20T15:00:41;7.00;;;5.60;;
13327;SDS011;6733;51.044;3.746;2023-07-20T15:03:07;5.70;;;5.10;;
13327;SDS011;6733;51.044;3.746;2023-07-20T15:05:35;5.73;;;5.33;;
13327;SDS011;6733;51.044;3.746;2023-07-20T15:08:02;8.23;;;5.90;;
13327;SDS011;6733;51.044;3.746;2023-07-20T15:10:28;7.60;;;5.70;;
13327;SDS011;6733;51.044;3.746;2023-07-20T15:12:54;6.93;;;6.23;;
13327;SDS011;6733;51.044;3.746;2023-07-20T15:15:23;14.33;;;7.60;;
13327;SDS011;6733;51.044;3.746;2023-07-20T15:17:50;13.27;;;6.80;;
13327;SDS011;6733;51.044;3.746;2023-07-20T15:20:16;10.73;;;6.13;;
13327;SDS011;6733;51.044;3.746;2023-07-20T15:22:43;10.30;;;5.97;;
13327;SDS011;6733;51.044;3.746;2023-07-20T15:25:09;7.90;;;5.70;;
13327;SDS011;6733;51.044;3.746;2023-07-20T15:27:39;13.93;;;6.73;;